createdAt,value
2023-04-18T00:00:57.128Z,153113.44
2023-04-18T00:03:30.588Z,153122.53
2023-04-18T00:06:01.568Z,153121.25
2023-04-18T00:08:33.141Z,153100.53
2023-04-18T00:11:03.953Z,153092.72
2023-04-18T00:13:35.635Z,153097.91
2023-04-18T00:16:06.380Z,153096.63
2023-04-18T00:18:40.405Z,153097.91
2023-04-18T00:21:14.036Z,153101.81
2023-04-18T00:23:46.851Z,153103.09
2023-04-18T00:26:20.060Z,153100.53
2023-04-18T00:28:52.698Z,153131.59
2023-04-18T00:31:25.685Z,153126.41
2023-04-18T00:34:00.230Z,153118.63
2023-04-18T00:36:30.843Z,153108.28
2023-04-18T00:39:01.774Z,153125.13
2023-04-18T00:41:34.120Z,153128.97
2023-04-18T00:44:05.661Z,153130.31
2023-04-18T00:46:36.322Z,153132.88
2023-04-18T00:49:10.473Z,153134.22
2023-04-18T00:51:44.455Z,153126.41
2023-04-18T00:54:18.069Z,153113.44
2023-04-18T00:56:51.028Z,153117.34
2023-04-18T00:59:22.809Z,153130.31
2023-04-18T01:01:53.978Z,153121.25
2023-04-18T01:04:28.663Z,153121.25
2023-04-18T01:07:00.432Z,153113.44
2023-04-18T01:09:36.452Z,153104.38
2023-04-18T01:12:09.758Z,153106.97
2023-04-18T01:14:46.373Z,153096.63
2023-04-18T01:17:17.960Z,153091.44
2023-04-18T01:19:52.676Z,153087.56
2023-04-18T01:22:25.198Z,153078.47
2023-04-18T01:33:37.118Z,153051.31
2023-04-18T01:36:10.688Z,153029.28
2023-04-18T01:41:42.296Z,153046.13
2023-04-18T01:44:22.847Z,153042.25
2023-04-18T01:46:56.711Z,153044.81
2023-04-18T01:49:30.541Z,153037.06
2023-04-18T01:52:05.538Z,153034.44
2023-04-18T01:54:38.537Z,153046.13
2023-04-18T01:57:14.745Z,153039.63
2023-04-18T01:59:50.238Z,153038.34
2023-04-18T02:02:24.849Z,153034.44
2023-04-18T02:04:59.732Z,153035.78
2023-04-18T02:07:31.037Z,153043.53
2023-04-18T02:10:02.048Z,153031.88
2023-04-18T02:12:36.585Z,153030.59
2023-04-18T02:15:10.369Z,153033.16
2023-04-18T02:17:42.210Z,153028.00
2023-04-18T02:20:15.424Z,153028.00
2023-04-18T02:22:47.660Z,153016.34
2023-04-18T02:25:19.439Z,153011.19
2023-04-18T02:27:55.217Z,153015.03
2023-04-18T02:30:27.535Z,153017.63
2023-04-18T02:33:01.342Z,153031.88
2023-04-18T02:35:34.714Z,153047.41
2023-04-18T02:38:08.268Z,153039.63
2023-04-18T02:40:39.334Z,153024.09
2023-04-18T02:43:14.023Z,153039.63
2023-04-18T02:45:48.636Z,153039.63
2023-04-18T02:48:21.699Z,153040.97
2023-04-18T02:50:55.393Z,153035.78
2023-04-18T02:53:26.574Z,153061.66
2023-04-18T02:56:01.156Z,153061.66
2023-04-18T02:58:57.119Z,153056.50
2023-04-18T03:01:59.891Z,153048.69
2023-04-18T03:04:38.908Z,153048.69
2023-04-18T03:07:13.065Z,153033.16
2023-04-18T03:09:47.696Z,153042.25
2023-04-18T03:12:30.235Z,153043.53
2023-04-18T03:15:03.861Z,153044.81
2023-04-18T03:17:35.783Z,153030.59
2023-04-18T03:20:13.145Z,153025.44
2023-04-18T03:22:47.064Z,153012.47
2023-04-18T03:25:22.772Z,153020.19
2023-04-18T03:27:57.069Z,153031.88
2023-04-18T03:30:33.130Z,153025.44
2023-04-18T03:33:06.264Z,153017.63
2023-04-18T03:35:39.249Z,153029.28
2023-04-18T03:38:11.520Z,153034.44
2023-04-18T03:40:45.047Z,153051.31
2023-04-18T03:43:23.613Z,153049.97
2023-04-18T03:45:58.844Z,153039.63
2023-04-18T03:48:36.433Z,153033.16
2023-04-18T03:51:12.709Z,153030.59
2023-04-18T03:53:45.554Z,153035.78
2023-04-18T03:56:16.205Z,153051.31
2023-04-18T03:59:05.993Z,153030.59
2023-04-18T04:01:40.921Z,153034.44
2023-04-18T04:04:15.938Z,153043.53
2023-04-18T04:06:47.032Z,153053.88
2023-04-18T04:09:20.791Z,153060.38
2023-04-18T04:11:54.029Z,153040.97
2023-04-18T04:14:25.189Z,153028.00
2023-04-18T04:17:00.748Z,153034.44
2023-04-18T04:19:32.741Z,153022.81
2023-04-18T04:22:14.052Z,153025.44
2023-04-18T04:24:47.233Z,153034.44
2023-04-18T04:27:22.147Z,153040.97
2023-04-18T04:29:54.383Z,153047.41
2023-04-18T04:32:28.892Z,153037.06
2023-04-18T04:34:59.967Z,153034.44
2023-04-18T04:37:34.144Z,153038.34
2023-04-18T04:40:16.048Z,153040.97
2023-04-18T04:42:54.611Z,153035.78
2023-04-18T04:45:35.544Z,153053.88
2023-04-18T04:48:10.215Z,153033.16
2023-04-18T04:50:42.674Z,153040.97
2023-04-18T04:53:15.413Z,153028.00
2023-04-18T04:55:46.635Z,153033.16
2023-04-18T04:58:17.987Z,153053.88
2023-04-18T05:01:08.952Z,153052.59
2023-04-18T05:28:05.280Z,153097.91
2023-04-18T05:30:40.107Z,153116.06
2023-04-18T05:33:12.778Z,153121.25
2023-04-18T05:35:47.552Z,153135.50
2023-04-18T05:38:19.852Z,153126.41
2023-04-18T05:40:51.788Z,153154.91
2023-04-18T05:43:24.488Z,153140.66
2023-04-18T05:45:59.443Z,153134.22
2023-04-18T05:48:32.683Z,153122.53
2023-04-18T05:51:05.352Z,153145.84
2023-04-18T05:53:40.409Z,153131.59
2023-04-18T05:56:14.086Z,153132.88
2023-04-18T05:58:45.512Z,153118.63
2023-04-18T06:01:21.869Z,153126.41
2023-04-18T06:03:56.261Z,153136.78
2023-04-18T06:06:28.356Z,153105.69
2023-04-18T06:09:01.198Z,153095.34
2023-04-18T06:11:34.305Z,153083.66
2023-04-18T06:14:06.673Z,153077.19
2023-04-18T06:16:42.771Z,153105.69
2023-04-18T06:19:14.262Z,153088.84
2023-04-18T06:21:46.880Z,153083.66
2023-04-18T06:24:18.772Z,153087.56
2023-04-18T06:26:51.436Z,153073.31
2023-04-18T06:29:27.574Z,153082.38
2023-04-18T06:32:04.642Z,153088.84
2023-04-18T06:34:39.295Z,153100.53
2023-04-18T06:37:11.152Z,153119.97
2023-04-18T06:39:42.521Z,153116.06
2023-04-18T06:42:15.987Z,153082.38
2023-04-18T06:44:51.929Z,153059.06
2023-04-18T06:47:27.667Z,153057.78
2023-04-18T06:50:00.142Z,153044.81
2023-04-18T06:52:31.188Z,153038.34
2023-04-18T06:55:02.516Z,153015.03
2023-04-18T06:57:33.328Z,153011.19
2023-04-18T07:00:04.804Z,152976.22
2023-04-18T07:02:39.935Z,152968.44
2023-04-18T07:05:12.233Z,152949.03
2023-04-18T07:07:44.593Z,152901.06
2023-04-18T07:10:16.152Z,152888.16
2023-04-18T07:12:49.707Z,152930.84
2023-04-18T07:15:22.115Z,152901.06
2023-04-18T07:17:56.248Z,152907.56
2023-04-18T07:20:27.326Z,152924.38
2023-04-18T07:22:58.299Z,152942.50
2023-04-18T07:25:29.650Z,152933.44
2023-04-18T07:28:01.100Z,152972.34
2023-04-18T07:30:38.405Z,152973.63
2023-04-18T07:33:14.387Z,152985.25
2023-04-18T07:35:47.509Z,152989.16
2023-04-18T07:38:20.678Z,152985.25
2023-04-18T07:41:03.737Z,152976.22
2023-04-18T07:43:36.384Z,152978.78
2023-04-18T07:46:09.266Z,152989.16
2023-04-18T07:48:45.347Z,153003.38
2023-04-18T07:51:19.164Z,153020.19
2023-04-18T07:53:51.679Z,153015.03
2023-04-18T07:56:23.620Z,153017.63
2023-04-18T07:59:02.468Z,153017.63
2023-04-18T08:01:34.292Z,153017.63
2023-04-18T08:04:10.235Z,153043.53
2023-04-18T08:06:44.220Z,153064.22
2023-04-18T08:09:15.679Z,153053.88
2023-04-18T08:11:47.736Z,153083.66
2023-04-18T08:14:18.735Z,153092.72
2023-04-18T08:16:50.481Z,153187.28
2023-04-18T08:19:25.692Z,153165.28
2023-04-18T08:21:57.021Z,153122.53
2023-04-18T08:24:31.002Z,153079.81
2023-04-18T08:27:02.337Z,153103.09
2023-04-18T08:29:33.196Z,153056.50
2023-04-18T08:32:04.007Z,153109.59
2023-04-18T08:34:40.295Z,153121.25
2023-04-18T08:37:11.419Z,153140.66
2023-04-18T08:39:42.342Z,153211.88
2023-04-18T08:42:14.150Z,153226.16
2023-04-18T08:44:46.206Z,153230.03
2023-04-18T08:47:17.242Z,153244.31
2023-04-18T08:49:52.694Z,153271.47
2023-04-18T08:52:29.393Z,153293.53
2023-04-18T08:55:04.430Z,153342.78
2023-04-18T08:57:36.175Z,153475.00
2023-04-18T09:00:12.281Z,153513.91
2023-04-18T09:02:47.529Z,153513.91
2023-04-18T09:05:25.433Z,153572.25
2023-04-18T09:07:57.839Z,153554.09
2023-04-18T09:10:31.940Z,153585.25
2023-04-18T09:13:04.683Z,153538.53
2023-04-18T09:15:39.044Z,153563.19
2023-04-18T09:18:16.611Z,153634.53
2023-04-18T09:20:50.620Z,153660.47
2023-04-18T09:23:28.181Z,153786.31
2023-04-18T09:25:59.770Z,153935.56
2023-04-18T09:28:31.770Z,153956.31
2023-04-18T09:31:12.347Z,153904.41
2023-04-18T09:33:45.164Z,153888.84
2023-04-18T09:36:27.614Z,153984.88
2023-04-18T09:38:59.757Z,153986.19
2023-04-18T09:41:30.993Z,154017.38
2023-04-18T09:44:15.932Z,153974.50
2023-04-18T09:46:47.662Z,153901.81
2023-04-18T09:49:20.595Z,154034.28
2023-04-18T09:51:57.017Z,154062.84
2023-04-18T09:54:29.903Z,154108.28
2023-04-18T09:57:02.052Z,154030.38
2023-04-18T09:59:45.123Z,154043.38
2023-04-18T10:02:18.861Z,154117.38
2023-04-18T10:04:51.290Z,154207.00
2023-04-18T10:20:50.215Z,154297.91
2023-04-18T10:23:38.519Z,154181.03
2023-04-18T10:26:11.908Z,154403.22
2023-04-18T10:29:04.230Z,154239.44
2023-04-18T10:31:56.447Z,154385.06
2023-04-18T10:34:28.329Z,154327.84
2023-04-18T10:37:13.054Z,154457.78
2023-04-18T10:40:03.128Z,154500.72
2023-04-18T10:43:02.728Z,154492.94
2023-04-18T10:45:36.689Z,154296.63
2023-04-18T10:48:32.922Z,154420.13
2023-04-18T10:51:17.002Z,154434.44
2023-04-18T10:53:57.230Z,154485.13
2023-04-18T10:56:29.254Z,154437.00
2023-04-18T10:59:04.377Z,154381.13
2023-04-18T11:01:35.697Z,154580.00
2023-04-18T11:04:15.701Z,154591.75
2023-04-18T11:06:53.418Z,154518.91
2023-04-18T11:09:26.474Z,154673.69
2023-04-18T11:12:12.605Z,154836.31
2023-04-18T11:14:43.480Z,155006.81
2023-04-18T11:17:24.257Z,154834.97
2023-04-18T11:19:54.720Z,154894.84
2023-04-18T11:22:24.874Z,154953.44
2023-04-18T11:25:01.142Z,154923.50
2023-04-18T11:27:32.869Z,154986.00
2023-04-18T11:30:02.957Z,154866.28
2023-04-18T11:32:33.196Z,154946.94
2023-04-18T11:35:03.508Z,154867.56
2023-04-18T11:37:33.661Z,155040.66
2023-04-18T11:40:07.799Z,155040.66
2023-04-18T11:42:39.208Z,155066.66
2023-04-18T11:45:14.513Z,155017.22
2023-04-18T11:47:46.555Z,155101.88
2023-04-18T11:50:16.915Z,155019.84
2023-04-18T11:52:53.411Z,155134.44
2023-04-18T11:55:27.808Z,155206.03
2023-04-18T11:57:59.090Z,154954.72
2023-04-18T12:00:42.089Z,155004.19
2023-04-18T12:03:20.407Z,155103.16
2023-04-18T12:05:51.428Z,155148.72
2023-04-18T12:08:23.217Z,154982.06
2023-04-18T12:10:57.396Z,154935.25
2023-04-18T12:13:28.980Z,154837.59
2023-04-18T12:15:59.210Z,154854.53
2023-04-18T12:18:30.110Z,154798.53
2023-04-18T12:21:02.232Z,154875.34
2023-04-18T12:23:34.036Z,154870.13
2023-04-18T12:26:09.163Z,154957.34
2023-04-18T12:28:39.289Z,154983.34
2023-04-18T12:31:09.660Z,154943.03
2023-04-18T12:33:39.836Z,155026.34
2023-04-18T12:36:11.374Z,155018.50
2023-04-18T12:38:41.497Z,155069.25
2023-04-18T12:41:14.184Z,155057.56
2023-04-18T12:43:44.319Z,155097.94
2023-04-18T12:46:14.484Z,155101.88
2023-04-18T12:48:44.588Z,155152.63
2023-04-18T12:51:14.712Z,155066.66
2023-04-18T12:53:44.826Z,155319.34
2023-04-18T12:56:18.435Z,155109.69
2023-04-18T12:58:48.617Z,155021.13
2023-04-18T13:01:18.845Z,154983.34
2023-04-18T13:03:59.890Z,154970.38
2023-04-18T13:06:38.879Z,154840.16
2023-04-18T13:09:09.491Z,154976.88
2023-04-18T13:11:42.213Z,155004.19
2023-04-18T13:14:12.514Z,155073.16
2023-04-18T13:16:44.036Z,155010.72
2023-04-18T13:19:14.426Z,154931.31
2023-04-18T13:21:44.624Z,154897.47
2023-04-18T13:24:14.782Z,154858.44
2023-04-18T13:26:47.521Z,154851.94
2023-04-18T13:29:17.626Z,154844.06
2023-04-18T13:31:47.747Z,154933.91
2023-04-18T13:34:17.922Z,154924.78
2023-04-18T13:36:48.189Z,154989.91
2023-04-18T13:39:19.009Z,154980.78
2023-04-18T13:41:51.809Z,154953.44
2023-04-18T13:44:21.942Z,154871.47
2023-04-18T13:46:52.039Z,154858.44
2023-04-18T13:49:22.136Z,154989.91
2023-04-18T13:51:53.675Z,154928.69
2023-04-18T13:54:23.782Z,154931.31
2023-04-18T13:56:57.356Z,155009.38
2023-04-18T13:59:27.537Z,154980.78
2023-04-18T14:01:58.323Z,154848.00
2023-04-18T14:04:28.912Z,154913.09
2023-04-18T14:06:59.296Z,154978.16
2023-04-18T14:09:29.924Z,154871.47
2023-04-18T14:12:02.704Z,154887.06
2023-04-18T14:14:32.947Z,154931.31
2023-04-18T14:17:03.084Z,154963.84
2023-04-18T14:19:33.350Z,154915.72
2023-04-18T14:22:03.539Z,154940.44
2023-04-18T14:24:33.714Z,154872.75
2023-04-18T14:27:06.546Z,154883.16
2023-04-18T14:29:36.750Z,154962.53
2023-04-18T14:32:07.333Z,154931.31
2023-04-18T14:34:38.847Z,154870.13
2023-04-18T14:37:09.806Z,154811.56
2023-04-18T14:39:40.289Z,154883.16
2023-04-18T14:42:13.177Z,154848.00
2023-04-18T14:44:43.818Z,154827.19
2023-04-18T14:47:13.979Z,154786.88
2023-04-18T14:49:44.241Z,154834.97
2023-04-18T14:52:14.426Z,154756.94
2023-04-18T14:54:44.475Z,154737.44
2023-04-18T14:57:17.210Z,154749.13
2023-04-18T14:59:47.370Z,154829.75
2023-04-18T15:02:17.696Z,154808.94
2023-04-18T15:04:48.008Z,154824.56
2023-04-18T15:07:18.379Z,154862.34
2023-04-18T15:09:48.573Z,154824.56
2023-04-18T15:12:21.491Z,154746.53
2023-04-18T15:14:51.661Z,154762.13
2023-04-18T15:17:22.122Z,154756.94
2023-04-18T15:19:52.320Z,154838.88
2023-04-18T15:22:23.081Z,154798.53
2023-04-18T15:24:53.342Z,154785.53
2023-04-18T15:27:26.069Z,154808.94
2023-04-18T15:29:56.526Z,154694.50
2023-04-18T15:32:26.841Z,154715.28
2023-04-18T15:34:57.037Z,154698.41
2023-04-18T15:37:28.104Z,154682.81
2023-04-18T15:39:58.230Z,154632.09
2023-04-18T15:42:31.065Z,154616.44
2023-04-18T15:45:01.323Z,154629.47
2023-04-18T15:47:31.905Z,154645.06
2023-04-18T15:50:03.641Z,154634.66
2023-04-18T15:52:33.787Z,154637.28
2023-04-18T15:55:05.084Z,154648.97
2023-04-18T15:57:37.935Z,154642.50
2023-04-18T16:00:11.947Z,154612.59
2023-04-18T16:02:42.184Z,154650.28
2023-04-18T16:05:12.844Z,154667.19
2023-04-18T16:07:43.358Z,154664.56
2023-04-18T16:10:15.475Z,154621.66
2023-04-18T16:12:48.420Z,154639.88
2023-04-18T16:15:18.875Z,154629.47
2023-04-18T16:17:49.219Z,154552.72
2023-04-18T16:20:20.514Z,154539.72
2023-04-18T16:22:50.657Z,154539.72
2023-04-18T16:25:20.799Z,154556.59
2023-04-18T16:27:53.682Z,154538.44
2023-04-18T16:30:24.346Z,154494.22
2023-04-18T16:32:54.617Z,154483.81
2023-04-18T16:35:25.059Z,154455.22
2023-04-18T16:37:55.152Z,154431.81
2023-04-18T16:40:30.609Z,154416.22
2023-04-18T16:43:03.779Z,154387.63
2023-04-18T16:45:34.100Z,154352.53
2023-04-18T16:48:04.412Z,154357.72
2023-04-18T16:50:34.579Z,154330.47
2023-04-18T16:53:04.798Z,154327.84
2023-04-18T16:55:34.963Z,154304.44
2023-04-18T16:58:07.749Z,154286.25
2023-04-18T17:00:39.889Z,154274.56
2023-04-18T17:03:10.318Z,154269.38
2023-04-18T17:05:40.821Z,154236.88
2023-04-18T17:08:11.093Z,154201.81
2023-04-18T17:10:41.331Z,154164.13
2023-04-18T17:13:14.225Z,154153.72
2023-04-18T17:15:44.584Z,154122.59
2023-04-18T17:18:14.865Z,154113.47
2023-04-18T17:20:47.613Z,154107.00
2023-04-18T17:23:17.860Z,154094.00
2023-04-18T17:25:48.048Z,154073.22
2023-04-18T17:28:21.422Z,154049.84
2023-04-18T17:30:52.182Z,154023.88
2023-04-18T17:33:22.625Z,154004.38
2023-04-18T17:35:52.821Z,153996.59
2023-04-18T17:38:23.007Z,153965.41
2023-04-18T17:41:02.804Z,153939.47
2023-04-18T17:43:35.554Z,153920.00
2023-04-18T17:46:05.789Z,153871.94
2023-04-18T17:48:36.064Z,153855.09
2023-04-18T17:51:06.467Z,153823.97
2023-04-18T17:53:39.449Z,153804.50
2023-04-18T17:56:09.716Z,153782.41
2023-04-18T17:58:42.552Z,153779.84
2023-04-18T18:01:19.085Z,153748.72
2023-04-18T18:03:50.047Z,153730.53
2023-04-18T18:06:20.475Z,153708.47
2023-04-18T18:08:50.766Z,153722.75
2023-04-18T18:11:21.672Z,153663.03
2023-04-18T18:13:55.819Z,153607.28
2023-04-18T18:16:26.429Z,153593.00
2023-04-18T18:18:56.668Z,153611.19
2023-04-18T18:21:27.421Z,153633.19
2023-04-18T18:23:57.655Z,153618.94
2023-04-18T18:26:29.591Z,153586.53
2023-04-18T18:29:08.957Z,153561.91
2023-04-18T18:31:39.257Z,153530.78
2023-04-18T18:34:09.595Z,153516.53
2023-04-18T18:36:40.393Z,153500.97
2023-04-18T18:39:11.191Z,153510.00
2023-04-18T18:41:41.703Z,153490.56
2023-04-18T18:44:15.008Z,153469.81
2023-04-18T18:46:45.293Z,153472.44
2023-04-18T18:49:15.663Z,153471.16
2023-04-18T18:51:46.137Z,153469.81
2023-04-18T18:54:16.338Z,153469.81
2023-04-18T18:56:46.885Z,153463.34
2023-04-18T18:59:20.854Z,153460.72
2023-04-18T19:01:51.089Z,153459.44
2023-04-18T19:04:21.339Z,153465.97
2023-04-18T19:06:51.712Z,153473.72
2023-04-18T19:09:21.942Z,153477.63
2023-04-18T19:11:52.118Z,153512.63
2023-04-18T19:14:24.964Z,153554.09
2023-04-18T19:16:56.178Z,153570.97
2023-04-18T19:19:26.397Z,153582.63
2023-04-18T19:22:01.305Z,153550.25
2023-04-18T19:24:32.150Z,153502.25
2023-04-18T19:27:03.097Z,153468.53
2023-04-18T19:29:36.151Z,153458.16
2023-04-18T19:32:06.578Z,153441.34
2023-04-18T19:34:36.757Z,153538.53
2023-04-18T19:37:07.528Z,153525.59
2023-04-18T19:39:37.658Z,153475.00
2023-04-18T19:42:08.701Z,153421.88
2023-04-18T19:44:41.571Z,153402.44
2023-04-18T19:47:11.789Z,153408.91
2023-04-18T19:49:42.279Z,153428.34
2023-04-18T19:52:12.421Z,153429.63
2023-04-18T19:54:42.604Z,153416.72
2023-04-18T19:57:12.873Z,153408.91
2023-04-18T19:59:45.763Z,153403.72
2023-04-18T20:02:15.902Z,153385.56
2023-04-18T20:04:47.994Z,153363.56
2023-04-18T20:07:18.395Z,153360.94
2023-04-18T20:09:48.577Z,153354.47
2023-04-18T20:12:18.751Z,153368.75
2023-04-18T20:14:51.580Z,153398.53
2023-04-18T20:17:23.979Z,153388.19
2023-04-18T20:19:57.343Z,153377.81
2023-04-18T20:22:27.919Z,153377.81
2023-04-18T20:24:59.176Z,153392.09
2023-04-18T20:27:29.300Z,153398.53
2023-04-18T20:30:02.053Z,153399.84
2023-04-18T20:32:32.381Z,153398.53
2023-04-18T20:35:03.010Z,153393.38
2023-04-18T20:37:37.025Z,153406.28
2023-04-18T20:40:11.369Z,153393.38
2023-04-18T20:42:41.680Z,153398.53
2023-04-18T20:45:15.073Z,153414.09
2023-04-18T20:47:45.909Z,153437.44
2023-04-18T20:50:18.387Z,153425.75
2023-04-18T20:52:48.561Z,153423.16
2023-04-18T20:55:19.851Z,153425.75
2023-04-18T20:57:50.117Z,153419.28
2023-04-18T21:00:23.615Z,153414.09
2023-04-18T21:02:53.990Z,153403.72
2023-04-18T21:05:24.316Z,153363.56
2023-04-18T21:07:54.514Z,153360.94
2023-04-18T21:10:25.048Z,153349.28
2023-04-18T21:12:55.264Z,153346.69
2023-04-18T21:15:28.402Z,153344.06
2023-04-18T21:17:59.128Z,153335.00
2023-04-18T21:20:29.683Z,153336.28
2023-04-18T21:22:59.978Z,153329.81
2023-04-18T21:25:30.199Z,153332.41
2023-04-18T21:28:00.444Z,153341.44
2023-04-18T21:30:33.541Z,153346.69
2023-04-18T21:33:03.852Z,153336.28
2023-04-18T21:35:34.116Z,153312.97
2023-04-18T21:38:04.295Z,153318.16
2023-04-18T21:40:34.520Z,153311.66
2023-04-18T21:43:04.707Z,153312.97
2023-04-18T21:45:37.750Z,153302.63
2023-04-18T21:48:08.792Z,153294.81
2023-04-18T21:50:39.002Z,153300.00
2023-04-18T21:53:09.170Z,153289.63
2023-04-18T21:55:39.329Z,153292.22
2023-04-18T21:58:09.506Z,153285.75
2023-04-18T22:00:42.585Z,153288.34
2023-04-18T22:03:13.086Z,153285.75
2023-04-18T22:05:43.392Z,153287.03
2023-04-18T22:08:15.116Z,153294.81
2023-04-18T22:10:45.409Z,153281.84
2023-04-18T22:13:16.814Z,153290.94
2023-04-18T22:15:50.211Z,153283.19
2023-04-18T22:18:22.155Z,153270.19
2023-04-18T22:20:53.895Z,153259.84
2023-04-18T22:23:24.132Z,153265.03
2023-04-18T22:25:54.353Z,153294.81
2023-04-18T22:28:24.960Z,153290.94
2023-04-18T22:30:58.196Z,153270.19
2023-04-18T22:33:28.666Z,153266.31
2023-04-18T22:35:58.910Z,153236.50
2023-04-18T22:38:32.085Z,153224.88
2023-04-18T22:41:02.281Z,153218.41
2023-04-18T22:43:32.438Z,153211.88
2023-04-18T22:46:05.976Z,153208.00
2023-04-18T22:48:36.601Z,153173.03
2023-04-18T22:51:07.047Z,153167.84
2023-04-18T22:53:37.236Z,153132.88
2023-04-18T22:56:07.785Z,153112.16
2023-04-18T22:58:37.991Z,153144.56
2023-04-18T23:01:10.937Z,153125.13
2023-04-18T23:03:41.273Z,153110.88
2023-04-18T23:06:11.543Z,153088.84
2023-04-18T23:08:41.724Z,153075.91
2023-04-18T23:11:11.934Z,153069.41
2023-04-18T23:13:42.069Z,153046.13
2023-04-18T23:16:14.905Z,153046.13
2023-04-18T23:18:45.072Z,153020.19
2023-04-18T23:21:15.336Z,152976.22
2023-04-18T23:23:45.463Z,152955.47
2023-04-18T23:26:16.882Z,152943.84
2023-04-18T23:28:47.177Z,152911.41
2023-04-18T23:31:20.181Z,152893.31
2023-04-18T23:33:50.352Z,152890.72
2023-04-18T23:36:20.572Z,152902.41
2023-04-18T23:38:50.783Z,152899.78
2023-04-18T23:41:21.038Z,152890.72
2023-04-18T23:43:51.270Z,152867.44
2023-04-18T23:46:24.090Z,152894.59
2023-04-18T23:48:54.416Z,152863.56
2023-04-18T23:51:24.592Z,152864.84
2023-04-18T23:53:54.725Z,152853.22
2023-04-18T23:56:24.911Z,152849.31
2023-04-18T23:58:55.082Z,152851.88
